No particular awareness of the weather is required.    There are no Weather-warnings


Meteo18 Weather Cam more information Meteo18 Weather Cam


Thunder radar more information blitzortung!


Rain radar more information rain snow radar


Visit our other weather sites:

Template documentation
and downloads

And another site



Weather Underground History page Text

Daily Summary for October 3, 2017 Units:  English    Metric   Both
« Previous Day
Next Day »
Daily Weekly Monthly Yearly Custom
  High: Low: Average:
Temperature: TemperatureC °F 9.4 °F 14.7 °F
Dew Point: DewpointC °F 7.8 °F 11.6 °F
Humidity: Humidity % 58 % 82 %
Wind Speed: WindSpeedKMH mph 0.0 mph 6.6 mph
Wind Gust: WindSpeedGustKMH mph - -
Wind:- - SSW
Pressure: PressurehPa in 1018.8 in -
Precipitation: 5.1 in    
Historical Graphs
 
 
Tabular Data for October 3, 2017
Time Temperature Dew Point Pressure Wind Wind Speed Wind Gust Humidity Rainfall Rate (Hourly)
TemperatureC °F DewpointC °F PressurehPa in Calm     Humidity % HourlyPrecipMM in
00:02 17.4 °F 16.8 °F 1020.9 in WNW 4.8 mph 27.4 mph 96 % 0.0 in
00:12 17.4 °F 16.8 °F 1020.9 in WSW 14.5 mph 19.3 mph 96 % 0.0 in
00:17 17.4 °F 16.8 °F 1020.9 in West 14.5 mph 20.9 mph 96 % 0.0 in
00:22 17.4 °F 16.8 °F 1020.5 in West 9.7 mph 22.5 mph 96 % 0.0 in
00:32 17.5 °F 16.7 °F 1020.5 in WSW 4.8 mph 22.5 mph 95 % 0.0 in
00:42 17.5 °F 16.7 °F 1020.5 in WSW 8.0 mph 20.9 mph 95 % 0.0 in
00:47 17.4 °F 16.8 °F 1020.5 in WSW 4.8 mph 17.7 mph 96 % 0.0 in
00:52 17.5 °F 16.9 °F 1020.5 in WSW 9.7 mph 20.9 mph 96 % 0.0 in
00:57 17.4 °F 16.8 °F 1020.5 in WSW 6.4 mph 20.9 mph 96 % 0.0 in
01:02 17.4 °F 16.8 °F 1020.5 in WSW 4.8 mph 24.1 mph 96 % 0.0 in
01:07 17.4 °F 16.8 °F 1020.5 in SSW 9.7 mph 24.1 mph 96 % 0.0 in
01:12 17.4 °F 16.8 °F 1020.2 in West 4.8 mph 24.1 mph 96 % 0.0 in
01:17 17.4 °F 16.8 °F 1020.2 in West 8.0 mph 17.7 mph 96 % 0.0 in
01:22 17.4 °F 16.8 °F 1020.2 in WSW 8.0 mph 16.1 mph 96 % 0.3 in
01:27 17.4 °F 16.8 °F 1020.2 in West 8.0 mph 20.9 mph 96 % 0.3 in
01:32 17.4 °F 16.8 °F 1020.2 in WSW 11.3 mph 20.9 mph 96 % 0.3 in
01:37 17.4 °F 16.8 °F 1020.2 in West 8.0 mph 20.9 mph 96 % 0.3 in
01:42 17.4 °F 16.8 °F 1020.2 in SW 6.4 mph 20.9 mph 96 % 0.3 in
01:47 17.4 °F 16.8 °F 1019.9 in SW 6.4 mph 25.7 mph 96 % 0.3 in
01:52 17.4 °F 16.8 °F 1019.9 in WSW 9.7 mph 25.7 mph 96 % 0.3 in
01:57 17.4 °F 16.8 °F 1019.9 in SW 14.5 mph 25.7 mph 96 % 0.3 in
02:02 17.4 °F 16.8 °F 1019.9 in WSW 9.7 mph 19.3 mph 96 % 0.3 in
02:12 17.4 °F 16.8 °F 1019.9 in SW 9.7 mph 24.1 mph 96 % 0.3 in
02:17 17.4 °F 16.8 °F 1019.9 in WSW 8.0 mph 24.1 mph 96 % 0.0 in
02:22 17.4 °F 16.8 °F 1019.9 in West 11.3 mph 29.0 mph 96 % 0.0 in
02:27 17.4 °F 16.6 °F 1019.9 in SW 14.5 mph 29.0 mph 95 % 0.0 in
02:32 17.5 °F 16.7 °F 1019.5 in SW 8.0 mph 29.0 mph 95 % 0.3 in
02:37 17.4 °F 16.6 °F 1019.5 in WSW 6.4 mph 24.1 mph 95 % 0.3 in
02:42 17.4 °F 16.6 °F 1019.5 in WSW 8.0 mph 22.5 mph 95 % 0.3 in
02:47 17.4 °F 16.6 °F 1019.5 in WSW 17.7 mph 25.7 mph 95 % 0.3 in
02:52 17.4 °F 16.6 °F 1019.5 in West 8.0 mph 25.7 mph 95 % 0.3 in
02:57 17.4 °F 16.6 °F 1019.5 in West 11.3 mph 25.7 mph 95 % 0.3 in
03:02 17.4 °F 16.6 °F 1019.5 in SW 17.7 mph 24.1 mph 95 % 0.3 in
03:07 17.4 °F 16.6 °F 1019.5 in West 19.3 mph 24.1 mph 95 % 0.3 in
03:12 17.4 °F 16.6 °F 1019.5 in WSW 9.7 mph 24.1 mph 95 % 0.3 in
03:17 17.3 °F 16.5 °F 1019.5 in West 8.0 mph 24.1 mph 95 % 0.3 in
03:22 17.3 °F 16.5 °F 1019.5 in WSW 16.1 mph 24.1 mph 95 % 0.3 in
03:32 17.4 °F 16.6 °F 1019.5 in West 11.3 mph 24.1 mph 95 % 0.0 in
03:37 17.4 °F 16.6 °F 1019.5 in WNW 6.4 mph 22.5 mph 95 % 0.0 in
03:42 17.4 °F 16.6 °F 1019.5 in SW 9.7 mph 22.5 mph 95 % 0.0 in
03:47 17.4 °F 16.6 °F 1019.5 in West 16.1 mph 22.5 mph 95 % 0.3 in
03:52 17.4 °F 16.4 °F 1019.5 in West 14.5 mph 22.5 mph 94 % 0.3 in
03:57 17.4 °F 16.4 °F 1019.2 in West 12.9 mph 22.5 mph 94 % 0.3 in
04:02 17.4 °F 16.4 °F 1019.2 in WNW 9.7 mph 22.5 mph 94 % 0.3 in
04:12 17.3 °F 16.5 °F 1019.2 in SW 16.1 mph 20.9 mph 95 % 0.3 in
04:17 17.4 °F 16.6 °F 1019.2 in WSW 9.7 mph 20.9 mph 95 % 0.3 in
04:22 17.4 °F 16.6 °F 1019.2 in SW 11.3 mph 20.9 mph 95 % 0.3 in
04:27 17.3 °F 16.5 °F 1019.2 in WSW 4.8 mph 19.3 mph 95 % 0.3 in
04:32 17.3 °F 16.5 °F 1019.2 in WSW 4.8 mph 19.3 mph 95 % 0.3 in
04:37 17.3 °F 16.5 °F 1019.2 in West 12.9 mph 16.1 mph 95 % 0.3 in
04:42 17.3 °F 16.5 °F 1019.2 in West 8.0 mph 16.1 mph 95 % 0.3 in
04:47 17.3 °F 16.5 °F 1019.2 in WSW 9.7 mph 19.3 mph 95 % 0.0 in
04:52 17.3 °F 16.5 °F 1019.2 in West 12.9 mph 19.3 mph 95 % 0.0 in
04:57 17.4 °F 16.6 °F 1019.2 in WSW 6.4 mph 20.9 mph 95 % 0.3 in
05:02 17.4 °F 16.6 °F 1019.2 in West 6.4 mph 20.9 mph 95 % 0.3 in
05:22 17.4 °F 16.4 °F 1019.2 in WSW 8.0 mph 19.3 mph 94 % 0.3 in
05:42 17.3 °F 16.5 °F 1018.8 in WSW 4.8 mph 14.5 mph 95 % 0.5 in
05:47 17.3 °F 16.5 °F 1018.8 in West 11.3 mph 14.5 mph 95 % 0.8 in
05:52 17.2 °F 16.4 °F 1018.8 in WSW 11.3 mph 14.5 mph 95 % 1.0 in
05:57 17.2 °F 16.4 °F 1018.8 in West 8.0 mph 14.5 mph 95 % 0.8 in
06:02 16.1 °F 14.5 °F 1019.5 in NNW 11.3 mph 33.8 mph 90 % 1.3 in
06:12 14.8 °F 13.8 °F 1019.9 in NW 9.7 mph 33.8 mph 94 % 2.3 in
06:17 14.4 °F 13.4 °F 1019.9 in NE 12.9 mph 19.3 mph 94 % 3.0 in
06:22 14.2 °F 13.2 °F 1019.9 in North 11.3 mph 19.3 mph 94 % 3.3 in
06:27 14.1 °F 13.3 °F 1019.9 in NNW 6.4 mph 19.3 mph 95 % 3.3 in
06:32 14.0 °F 13.2 °F 1019.9 in NE 12.9 mph 19.3 mph 95 % 3.6 in
06:42 13.9 °F 13.1 °F 1019.9 in North 8.0 mph 19.3 mph 95 % 3.3 in
06:47 13.8 °F 13.0 °F 1019.9 in North 6.4 mph 20.9 mph 95 % 3.3 in
06:57 13.7 °F 13.1 °F 1020.2 in NNE 6.4 mph 20.9 mph 96 % 3.0 in
07:02 13.7 °F 13.1 °F 1020.2 in NNW 8.0 mph 16.1 mph 96 % 2.5 in
07:12 13.4 °F 12.8 °F 1020.2 in NNE 11.3 mph 14.5 mph 96 % 1.5 in
07:17 13.4 °F 12.8 °F 1020.2 in North 16.1 mph 20.9 mph 96 % 1.0 in
07:22 13.3 °F 12.7 °F 1020.2 in North 8.0 mph 20.9 mph 96 % 0.8 in
07:32 13.3 °F 12.7 °F 1020.5 in NNE 6.4 mph 20.9 mph 96 % 0.5 in
07:37 13.3 °F 12.7 °F 1020.5 in NNE 9.7 mph 19.3 mph 96 % 0.3 in
07:42 13.2 °F 12.6 °F 1020.9 in North 11.3 mph 16.1 mph 96 % 0.3 in
07:47 13.2 °F 12.4 °F 1020.9 in NNE 9.7 mph 24.1 mph 95 % 0.3 in
07:52 13.2 °F 12.4 °F 1020.9 in North 14.5 mph 24.1 mph 95 % 0.0 in
07:57 13.2 °F 12.4 °F 1021.2 in NNW 12.9 mph 24.1 mph 95 % 0.0 in
08:02 13.2 °F 12.4 °F 1021.2 in NNE 9.7 mph 22.5 mph 95 % 0.0 in
08:12 13.1 °F 12.2 °F 1021.6 in NNW 8.0 mph 20.9 mph 94 % 0.0 in
08:17 13.1 °F 12.2 °F 1021.6 in North 4.8 mph 20.9 mph 94 % 0.0 in
08:22 13.1 °F 12.2 °F 1021.6 in North 9.7 mph 20.9 mph 94 % 0.0 in
08:27 13.1 °F 12.2 °F 1021.6 in NE 6.4 mph 17.7 mph 94 % 0.0 in
08:32 13.1 °F 12.2 °F 1021.9 in North 11.3 mph 17.7 mph 94 % 0.0 in
08:37 13.2 °F 12.3 °F 1021.9 in NNE 3.2 mph 17.7 mph 94 % 0.0 in
08:42 13.2 °F 12.3 °F 1021.9 in NNE 8.0 mph 17.7 mph 94 % 0.0 in
08:52 13.2 °F 12.3 °F 1022.2 in NNE 12.9 mph 19.3 mph 94 % 0.0 in
08:57 13.2 °F 12.1 °F 1022.2 in North 4.8 mph 22.5 mph 93 % 0.0 in
09:02 13.2 °F 12.1 °F 1022.2 in NNE 6.4 mph 22.5 mph 93 % 0.0 in
09:07 13.3 °F 12.2 °F 1022.6 in NNW 6.4 mph 22.5 mph 93 % 0.0 in
09:12 13.3 °F 12.2 °F 1022.2 in NNW 4.8 mph 20.9 mph 93 % 0.0 in
09:17 13.3 °F 12.2 °F 1022.6 in NNW 6.4 mph 20.9 mph 93 % 0.0 in
09:22 13.2 °F 11.9 °F 1022.6 in North 4.8 mph 20.9 mph 92 % 0.0 in
09:32 13.1 °F 11.8 °F 1022.9 in NNE 11.3 mph 17.7 mph 92 % 0.0 in
09:42 13.1 °F 11.7 °F 1023.2 in NNW 6.4 mph 22.5 mph 91 % 0.0 in
09:47 13.2 °F 11.8 °F 1023.2 in NNE 4.8 mph 24.1 mph 91 % 0.0 in
09:52 13.4 °F 11.8 °F 1023.2 in NE 9.7 mph 24.1 mph 90 % 0.0 in
09:57 13.6 °F 11.6 °F 1023.2 in NNE 6.4 mph 22.5 mph 88 % 0.0 in
10:02 13.7 °F 11.4 °F 1023.6 in North 16.1 mph 16.1 mph 86 % 0.3 in
10:12 14.1 °F 11.8 °F 1023.6 in North 4.8 mph 20.9 mph 86 % 0.3 in
10:17 14.1 °F 12.0 °F 1023.9 in NNW 14.5 mph 20.9 mph 87 % 0.3 in
10:22 13.7 °F 11.4 °F 1023.9 in North 11.3 mph 24.1 mph 86 % 0.3 in
10:32 13.6 °F 11.5 °F 1024.3 in NE 8.0 mph 24.1 mph 87 % 0.3 in
10:37 13.8 °F 11.5 °F 1024.3 in North 9.7 mph 20.9 mph 86 % 0.3 in
10:42 14.2 °F 11.7 °F 1023.9 in North 6.4 mph 16.1 mph 85 % 0.3 in
10:47 14.4 °F 11.9 °F 1024.3 in NNW 11.3 mph 19.3 mph 85 % 0.3 in
10:52 14.4 °F 11.5 °F 1024.3 in NNW 8.0 mph 19.3 mph 83 % 0.3 in
10:57 14.3 °F 11.1 °F 1024.3 in NNE 9.7 mph 19.3 mph 81 % 0.3 in
11:02 14.4 °F 11.4 °F 1024.3 in NE 6.4 mph 22.5 mph 82 % 0.0 in
11:12 14.6 °F 11.2 °F 1024.3 in East 8.0 mph 20.9 mph 80 % 0.0 in
11:17 14.5 °F 10.3 °F 1024.3 in NE 6.4 mph 19.3 mph 76 % 0.0 in
11:22 14.6 °F 10.6 °F 1024.6 in NE 8.0 mph 24.1 mph 77 % 0.0 in
11:27 14.7 °F 10.7 °F 1024.3 in North 6.4 mph 24.1 mph 77 % 0.0 in
11:32 14.8 °F 10.8 °F 1024.6 in NE 9.7 mph 24.1 mph 77 % 0.0 in
11:37 14.8 °F 11.0 °F 1024.6 in NNW 4.8 mph 19.3 mph 78 % 0.0 in
11:42 15.0 °F 11.0 °F 1024.6 in NNE 11.3 mph 19.3 mph 77 % 0.0 in
11:47 15.3 °F 11.1 °F 1024.6 in NNW 8.0 mph 19.3 mph 76 % 0.0 in
11:52 15.7 °F 11.9 °F 1024.6 in NW 4.8 mph 19.3 mph 78 % 0.0 in
11:57 15.6 °F 12.0 °F 1024.6 in NW 11.3 mph 19.3 mph 79 % 0.0 in
12:02 15.4 °F 11.4 °F 1024.9 in NNW 4.8 mph 19.3 mph 77 % 0.0 in
12:07 15.2 °F 11.0 °F 1024.9 in NNE 9.7 mph 17.7 mph 76 % 0.0 in
12:12 14.8 °F 10.6 °F 1024.9 in NNE 3.2 mph 17.7 mph 76 % 0.0 in
12:17 15.1 °F 10.9 °F 1024.9 in NE 6.4 mph 16.1 mph 76 % 0.0 in
12:22 15.3 °F 10.9 °F 1024.9 in NNE 4.8 mph 16.1 mph 75 % 0.0 in
12:32 15.3 °F 9.6 °F 1025.3 in NW 8.0 mph 16.1 mph 69 % 0.0 in
12:42 15.6 °F 10.1 °F 1025.3 in NE 12.9 mph 17.7 mph 70 % 0.0 in
12:47 15.4 °F 9.7 °F 1025.3 in WNW 16.1 mph 20.9 mph 69 % 0.0 in
12:52 15.6 °F 10.1 °F 1025.6 in NNE 12.9 mph 20.9 mph 70 % 0.0 in
12:57 15.8 °F 10.3 °F 1025.6 in NW 9.7 mph 20.9 mph 70 % 0.0 in
13:02 15.6 °F 9.9 °F 1025.6 in NNW 9.7 mph 19.3 mph 69 % 0.0 in
13:07 15.2 °F 9.3 °F 1025.6 in North 4.8 mph 19.3 mph 68 % 0.0 in
13:12 15.3 °F 9.4 °F 1025.6 in North 12.9 mph 19.3 mph 68 % 0.0 in
13:17 15.5 °F 9.4 °F 1025.6 in North 4.8 mph 19.3 mph 67 % 0.0 in
13:22 15.7 °F 9.6 °F 1025.6 in NNE 9.7 mph 17.7 mph 67 % 0.0 in
13:27 16.0 °F 9.9 °F 1025.6 in NNW 3.2 mph 17.7 mph 67 % 0.0 in
13:32 16.2 °F 9.6 °F 1025.6 in NNW 14.5 mph 25.7 mph 65 % 0.0 in
13:37 15.8 °F 9.2 °F 1025.6 in NE 9.7 mph 25.7 mph 65 % 0.0 in
13:42 15.5 °F 9.2 °F 1026.0 in NW 3.2 mph 25.7 mph 66 % 0.0 in
13:52 15.9 °F 9.3 °F 1025.6 in NNE 8.0 mph 17.7 mph 65 % 0.0 in
13:57 16.0 °F 9.4 °F 1025.6 in Calm   12.9 mph 65 % 0.0 in
14:02 16.4 °F 10.3 °F 1025.6 in NNW 16.1 mph 20.9 mph 67 % 0.0 in
14:12 15.5 °F 8.9 °F 1025.6 in NNE 9.7 mph 22.5 mph 65 % 0.0 in
14:17 15.8 °F 10.1 °F 1025.6 in North 6.4 mph 22.5 mph 69 % 0.0 in
14:22 15.9 °F 9.1 °F 1025.6 in NNE 4.8 mph 16.1 mph 64 % 0.0 in
14:27 16.1 °F 8.8 °F 1025.6 in NNW 9.7 mph 17.7 mph 62 % 0.0 in
14:32 16.2 °F 9.4 °F 1025.3 in NNW 3.2 mph 19.3 mph 64 % 0.0 in
14:42 16.7 °F 9.9 °F 1025.3 in NNE 8.0 mph 19.3 mph 64 % 0.0 in
14:47 16.3 °F 10.2 °F 1025.3 in NNW 11.3 mph 16.1 mph 67 % 0.0 in
14:52 16.1 °F 9.7 °F 1025.3 in NE 14.5 mph 16.1 mph 66 % 0.0 in
14:57 15.9 °F 8.6 °F 1025.3 in NE 9.7 mph 16.1 mph 62 % 0.0 in
15:02 16.0 °F 8.7 °F 1025.3 in NNE 9.7 mph 14.5 mph 62 % 0.0 in
15:07 15.9 °F 8.9 °F 1025.3 in NNW 3.2 mph 14.5 mph 63 % 0.0 in
15:12 16.2 °F 8.9 °F 1025.3 in NNW 4.8 mph 14.5 mph 62 % 0.0 in
15:22 16.8 °F 10.0 °F 1025.3 in NNE 16.1 mph 16.1 mph 64 % 0.0 in
15:27 16.2 °F 8.9 °F 1025.3 in NNE 8.0 mph 20.9 mph 62 % 0.0 in
15:32 15.9 °F 8.9 °F 1025.3 in NNW 4.8 mph 20.9 mph 63 % 0.0 in
15:37 15.9 °F 9.1 °F 1025.3 in ENE 6.4 mph 20.9 mph 64 % 0.0 in
15:42 16.3 °F 8.8 °F 1025.3 in NNE 1.6 mph 16.1 mph 61 % 0.0 in
15:47 16.6 °F 9.0 °F 1024.9 in NNE 8.0 mph 14.5 mph 61 % 0.0 in
15:52 16.6 °F 9.0 °F 1025.3 in NNW 4.8 mph 12.9 mph 61 % 0.0 in
15:57 16.6 °F 9.0 °F 1025.3 in NW 6.4 mph 16.1 mph 61 % 0.0 in
16:02 16.6 °F 8.6 °F 1025.3 in NNW 3.2 mph 16.1 mph 59 % 0.0 in
16:07 16.7 °F 9.1 °F 1025.3 in NE 8.0 mph 16.1 mph 61 % 0.0 in
16:12 16.8 °F 9.5 °F 1025.3 in NNE 6.4 mph 14.5 mph 62 % 0.0 in
16:17 16.5 °F 9.4 °F 1025.3 in North 8.0 mph 14.5 mph 63 % 0.0 in
16:22 16.3 °F 9.2 °F 1025.3 in NNW 1.6 mph 14.5 mph 63 % 0.0 in
16:27 16.1 °F 9.1 °F 1025.3 in North 1.6 mph 14.5 mph 63 % 0.0 in
16:32 16.1 °F 8.8 °F 1025.3 in Calm   12.9 mph 62 % 0.0 in
16:37 16.3 °F 8.8 °F 1025.3 in North 3.2 mph 11.3 mph 61 % 0.0 in
16:47 17.0 °F 8.9 °F 1025.3 in North 1.6 mph 4.8 mph 59 % 0.0 in
16:52 17.1 °F 8.8 °F 1025.3 in NNE 6.4 mph 8.0 mph 58 % 0.0 in
16:57 16.9 °F 8.6 °F 1025.6 in NE 6.4 mph 12.9 mph 58 % 0.0 in
17:02 16.8 °F 9.5 °F 1025.6 in NE 4.8 mph 12.9 mph 62 % 0.0 in
17:07 16.6 °F 9.3 °F 1026.0 in NNE 6.4 mph 16.1 mph 62 % 0.0 in
17:12 16.3 °F 9.7 °F 1026.0 in NNE 6.4 mph 16.1 mph 65 % 0.0 in
17:17 16.2 °F 9.8 °F 1026.0 in North 6.4 mph 12.9 mph 66 % 0.0 in
17:22 15.9 °F 9.3 °F 1026.0 in NE 3.2 mph 12.9 mph 65 % 0.0 in
17:27 15.9 °F 9.8 °F 1026.0 in NE 1.6 mph 9.7 mph 67 % 0.0 in
17:32 16.1 °F 9.3 °F 1026.0 in NE 1.6 mph 6.4 mph 64 % 0.0 in
17:37 16.3 °F 9.2 °F 1026.0 in NE 4.8 mph 8.0 mph 63 % 0.0 in
17:47 16.7 °F 8.6 °F 1026.0 in NNE 3.2 mph 6.4 mph 59 % 0.0 in
17:52 16.8 °F 9.0 °F 1026.3 in NW 9.7 mph 9.7 mph 60 % 0.0 in
17:57 16.6 °F 9.0 °F 1026.3 in NNW 6.4 mph 11.3 mph 61 % 0.0 in
18:02 16.5 °F 9.4 °F 1026.0 in NE 4.8 mph 11.3 mph 63 % 0.0 in
18:12 16.6 °F 9.0 °F 1026.3 in NNW 6.4 mph 9.7 mph 61 % 0.0 in
18:17 16.6 °F 8.8 °F 1026.3 in NNE 4.8 mph 9.7 mph 60 % 0.0 in
18:27 16.7 °F 8.9 °F 1026.3 in NE 6.4 mph 9.7 mph 60 % 0.0 in
18:32 16.6 °F 9.0 °F 1026.3 in NNE 6.4 mph 8.0 mph 61 % 0.0 in
18:47 16.1 °F 9.1 °F 1026.3 in NE 4.8 mph 9.7 mph 63 % 0.0 in
18:57 15.7 °F 9.1 °F 1026.3 in Calm   4.8 mph 65 % 0.0 in
19:07 15.3 °F 8.8 °F 1026.3 in Calm   3.2 mph 65 % 0.0 in
19:12 15.2 °F 8.9 °F 1026.0 in Calm   3.2 mph 66 % 0.0 in
19:22 14.8 °F 10.0 °F 1026.0 in Calm   1.6 mph 73 % 0.0 in
19:27 14.3 °F 9.7 °F 1026.3 in Calm   1.6 mph 74 % 0.0 in
19:32 13.8 °F 9.4 °F 1026.0 in Calm   1.6 mph 75 % 0.0 in
19:37 13.6 °F 9.6 °F 1026.0 in NW 1.6 mph 1.6 mph 77 % 0.0 in
19:42 13.1 °F 9.0 °F 1026.3 in WNW 3.2 mph 3.2 mph 76 % 0.0 in
19:47 12.7 °F 9.3 °F 1026.3 in WNW 1.6 mph 3.2 mph 80 % 0.0 in
19:52 12.3 °F 8.9 °F 1026.3 in Calm   3.2 mph 80 % 0.0 in
19:57 12.4 °F 8.9 °F 1026.3 in Calm   3.2 mph 79 % 0.0 in
20:02 12.3 °F 8.8 °F 1026.3 in Calm   3.2 mph 79 % 0.0 in
20:07 12.1 °F 9.1 °F 1026.3 in Calm   1.6 mph 82 % 0.0 in
20:12 12.1 °F 9.3 °F 1026.3 in WNW 1.6 mph 1.6 mph 83 % 0.0 in
20:17 11.7 °F 9.1 °F 1026.6 in Calm   3.2 mph 84 % 0.0 in
20:22 11.6 °F 9.2 °F 1026.6 in Calm   3.2 mph 85 % 0.0 in
20:27 11.4 °F 9.1 °F 1026.6 in Calm   3.2 mph 86 % 0.0 in
20:32 11.4 °F 9.3 °F 1026.6 in NNW 1.6 mph 3.2 mph 87 % 0.0 in
20:37 11.4 °F 9.1 °F 1026.6 in North 1.6 mph 3.2 mph 86 % 0.0 in
20:42 11.4 °F 9.3 °F 1026.6 in Calm   3.2 mph 87 % 0.0 in
20:47 11.3 °F 9.2 °F 1027.0 in Calm   1.6 mph 87 % 0.0 in
20:52 11.1 °F 9.0 °F 1026.6 in Calm   1.6 mph 87 % 0.0 in
20:57 10.8 °F 8.9 °F 1026.6 in Calm   1.6 mph 88 % 0.0 in
21:02 10.6 °F 8.9 °F 1027.0 in Calm   1.6 mph 89 % 0.0 in
21:07 10.5 °F 8.8 °F 1027.0 in Calm   1.6 mph 89 % 0.0 in
21:12 10.4 °F 8.7 °F 1027.0 in Calm   1.6 mph 89 % 0.0 in
21:17 10.3 °F 8.7 °F 1027.0 in Calm   1.6 mph 90 % 0.0 in
21:27 10.1 °F 8.5 °F 1027.3 in NW 1.6 mph 1.6 mph 90 % 0.0 in
21:32 10.4 °F 8.7 °F 1027.3 in NW 4.8 mph 4.8 mph 89 % 0.0 in
21:42 10.8 °F 8.6 °F 1027.7 in NW 3.2 mph 4.8 mph 86 % 0.0 in
21:47 10.8 °F 8.6 °F 1027.7 in NNW 1.6 mph 4.8 mph 86 % 0.0 in
21:52 10.8 °F 8.6 °F 1027.7 in NW 3.2 mph 4.8 mph 86 % 0.0 in
21:57 10.8 °F 8.6 °F 1027.7 in NW 3.2 mph 4.8 mph 86 % 0.0 in
22:02 10.9 °F 8.5 °F 1027.7 in NW 1.6 mph 4.8 mph 85 % 0.0 in
22:07 10.9 °F 8.5 °F 1027.7 in NNW 1.6 mph 4.8 mph 85 % 0.0 in
22:12 10.9 °F 8.5 °F 1027.7 in NNW 1.6 mph 3.2 mph 85 % 0.0 in
22:17 10.8 °F 8.4 °F 1027.7 in NNW 1.6 mph 3.2 mph 85 % 0.0 in
22:22 10.9 °F 8.5 °F 1027.7 in Calm   4.8 mph 85 % 0.0 in
22:27 10.9 °F 8.3 °F 1027.7 in WNW 3.2 mph 4.8 mph 84 % 0.0 in
22:32 10.9 °F 8.3 °F 1027.7 in Calm   4.8 mph 84 % 0.0 in
22:37 10.9 °F 8.3 °F 1027.7 in WNW 1.6 mph 3.2 mph 84 % 0.0 in
22:42 10.4 °F 8.0 °F 1027.7 in WNW 1.6 mph 3.2 mph 85 % 0.0 in
22:47 9.9 °F 8.0 °F 1028.0 in WNW 1.6 mph 3.2 mph 88 % 0.0 in
22:52 10.0 °F 8.1 °F 1028.0 in Calm   3.2 mph 88 % 0.0 in
22:57 10.0 °F 8.1 °F 1028.0 in Calm   3.2 mph 88 % 0.0 in
23:02 9.8 °F 7.9 °F 1028.0 in Calm   1.6 mph 88 % 0.0 in
23:07 9.7 °F 8.0 °F 1028.0 in Calm   1.6 mph 89 % 0.0 in
23:12 9.6 °F 7.9 °F 1028.0 in WNW 1.6 mph 1.6 mph 89 % 0.0 in
23:17 9.5 °F 7.9 °F 1028.0 in Calm   3.2 mph 90 % 0.0 in
23:27 9.4 °F 8.0 °F 1028.0 in WNW 1.6 mph 1.6 mph 91 % 0.0 in
23:32 9.5 °F 7.9 °F 1028.0 in WNW 1.6 mph 1.6 mph 90 % 0.0 in
23:37 9.4 °F 7.8 °F 1028.0 in Calm   1.6 mph 90 % 0.0 in
23:42 9.4 °F 7.8 °F 1028.3 in WNW 1.6 mph 1.6 mph 90 % 0.0 in
23:47 9.4 °F 8.0 °F 1028.3 in Calm   1.6 mph 91 % 0.0 in
23:52 9.4 °F 7.8 °F 1028.0 in WNW 1.6 mph 1.6 mph 90 % 0.0 in
23:57 9.4 °F 7.8 °F 1028.0 in Calm   1.6 mph 90 % 0.0 in
Meteo18
Compliments of Weather Underground - 4 mb

Script developed by  Jim McMurry - jmcmurry@mwt.net Adapted for the template by  Wim van der Kuil - Leuven-Template.eu

You find our weather info also at:

European Weather Network

Weather Underground

Equipment we use:

Weather-station
Davis Vue

Weather-program
Meteobridge

Weather-server
Raspberry PI 2 B+

Provider
1 and 1

Davis Vue

Meteobridge

Raspberry PI 2 B+

1 and 1